Карточка аэропорта USTR

Внимание!
Информация на этой странице в стадии наполнения.
Если вы не увидели какой-то информации, или заметили неточность - пожалуйста сообщите нам!
Спасибо!
Команда RU-STAFF
Название аэропортаРощино
Название аэропорта (англ.)Roshschino
Превышение378 ft. (115.2 m.)
Координаты57°10.098', 65°19.002'
Высота перехода700m
Эшелон переходаFL040
Коды ответчика5101-5137
Зона ОрВДТюмень РПИ (USTV)
Данные METARUSTR 302030Z 09002MPS CAVOK M20/M23 Q1041 R12/CLRD65 R21/CLRD65 NOSIG
Проноз погоды (TAF)USTR 301955Z 3021/0121 09004MPS 6000 FEW004 SCT020 TEMPO 3021/0104 VRB01MPS 3100 -SN HZ SCT003 BKN016 BECMG 0104/0106 9999 BKN020 BECMG 0115/0117 VRB01MPS
NOTAMshow/hide NOTAM
AWOS   TABLE

Информация о ВПП

ВПП Длина ВПП (м.) Покрытие Курс ВПП Частота ILS
122704Асфальтобетон121 
302704Асфальтобетон301 
033003Асфальтобетон34108.3
213003Асфальтобетон214110.7

Диспетчерские позиции

Позывной Наименование органа УВД Частота
USTR_R_APPТюмень-Круг126.100
USTR_GNDТюмень-Руление119.000
USTR_TWRТюмень-Старт118.200



Спутниковое изображение